sensor_id;sensor_type;location;lat;lon;timestamp;pressure;altitude;pressure_sealevel;temperature;humidity
22649;BME280;11491;41.942;24.220;2023-08-01T00:01:33;89689.03;;;16.98;81.78
22649;BME280;11491;41.942;24.220;2023-08-01T00:04:00;89780.03;;;17.51;83.19
22649;BME280;11491;41.942;24.220;2023-08-01T00:06:28;89774.28;;;17.49;84.18
22649;BME280;11491;41.942;24.220;2023-08-01T00:08:54;89767.72;;;17.47;83.41
22649;BME280;11491;41.942;24.220;2023-08-01T00:11:21;89764.63;;;17.52;83.26
22649;BME280;11491;41.942;24.220;2023-08-01T00:13:48;89756.50;;;17.48;84.51
22649;BME280;11491;41.942;24.220;2023-08-01T00:16:14;89753.81;;;17.44;85.27
22649;BME280;11491;41.942;24.220;2023-08-01T00:18:41;89749.16;;;17.52;84.12
22649;BME280;11491;41.942;24.220;2023-08-01T00:21:08;89753.03;;;17.55;84.13
22649;BME280;11491;41.942;24.220;2023-08-01T00:23:38;89756.84;;;17.61;84.47
22649;BME280;11491;41.942;24.220;2023-08-01T00:26:05;89752.25;;;17.58;84.41
22649;BME280;11491;41.942;24.220;2023-08-01T00:28:31;89743.72;;;17.70;83.06
22649;BME280;11491;41.942;24.220;2023-08-01T00:31:03;89746.78;;;17.76;82.05
22649;BME280;11491;41.942;24.220;2023-08-01T00:33:29;89750.66;;;17.71;82.95
22649;BME280;11491;41.942;24.220;2023-08-01T00:35:56;89750.66;;;17.71;83.64
22649;BME280;11491;41.942;24.220;2023-08-01T00:38:23;89742.19;;;17.58;84.72
22649;BME280;11491;41.942;24.220;2023-08-01T00:40:51;89742.22;;;17.55;84.69
22649;BME280;11491;41.942;24.220;2023-08-01T00:43:18;89741.03;;;17.56;84.83
22649;BME280;11491;41.942;24.220;2023-08-01T00:45:45;89743.00;;;17.59;84.60
22649;BME280;11491;41.942;24.220;2023-08-01T00:48:12;89739.47;;;17.65;84.05
22649;BME280;11491;41.942;24.220;2023-08-01T00:50:39;89705.16;;;17.55;82.85
22649;BME280;11491;41.942;24.220;2023-08-01T00:53:06;89727.88;;;17.72;82.90
22649;BME280;11491;41.942;24.220;2023-08-01T00:55:34;89727.13;;;17.68;83.04
22649;BME280;11491;41.942;24.220;2023-08-01T00:58:03;89719.03;;;17.54;83.32
22649;BME280;11491;41.942;24.220;2023-08-01T01:00:29;89712.88;;;17.53;82.95
22649;BME280;11491;41.942;24.220;2023-08-01T01:02:56;89710.59;;;17.44;83.68
22649;BME280;11491;41.942;24.220;2023-08-01T01:05:24;89710.59;;;17.44;83.61
22649;BME280;11491;41.942;24.220;2023-08-01T01:07:52;89705.97;;;17.38;83.33
22649;BME280;11491;41.942;24.220;2023-08-01T01:10:19;89699.00;;;17.33;83.38
22649;BME280;11491;41.942;24.220;2023-08-01T01:12:45;89702.91;;;17.25;83.62
22649;BME280;11491;41.942;24.220;2023-08-01T01:15:14;89705.22;;;17.23;83.61
22649;BME280;11491;41.942;24.220;2023-08-01T01:17:41;89706.38;;;17.22;83.25
22649;BME280;11491;41.942;24.220;2023-08-01T01:20:08;89707.91;;;17.01;83.84
22649;BME280;11491;41.942;24.220;2023-08-01T01:22:37;89699.81;;;17.01;82.79
22649;BME280;11491;41.942;24.220;2023-08-01T01:25:07;89692.09;;;16.89;83.74
22649;BME280;11491;41.942;24.220;2023-08-01T01:27:35;89683.63;;;16.73;83.31
22649;BME280;11491;41.942;24.220;2023-08-01T01:30:05;89679.75;;;16.49;84.63
22649;BME280;11491;41.942;24.220;2023-08-01T01:32:33;89674.34;;;16.31;85.73
22649;BME280;11491;41.942;24.220;2023-08-01T01:35:01;89684.75;;;16.43;84.40
22649;BME280;11491;41.942;24.220;2023-08-01T01:37:29;89678.16;;;16.26;85.18
22649;BME280;11491;41.942;24.220;2023-08-01T01:39:57;89682.75;;;16.11;86.44
22649;BME280;11491;41.942;24.220;2023-08-01T01:42:24;89672.00;;;16.19;86.40
22649;BME280;11491;41.942;24.220;2023-08-01T01:44:51;89672.78;;;16.23;86.41
22649;BME280;11491;41.942;24.220;2023-08-01T01:47:17;89685.88;;;16.21;86.08
22649;BME280;11491;41.942;24.220;2023-08-01T01:49:44;89663.09;;;15.93;86.77
22649;BME280;11491;41.942;24.220;2023-08-01T01:52:11;89682.75;;;16.04;86.41
22649;BME280;11491;41.942;24.220;2023-08-01T01:54:38;89674.97;;;15.85;86.19
22649;BME280;11491;41.942;24.220;2023-08-01T01:57:06;89675.78;;;15.89;85.83
22649;BME280;11491;41.942;24.220;2023-08-01T01:59:33;89680.38;;;15.85;86.66
22649;BME280;11491;41.942;24.220;2023-08-01T02:01:59;89676.16;;;15.87;87.16
22649;BME280;11491;41.942;24.220;2023-08-01T02:04:29;89668.69;;;15.52;88.37
22649;BME280;11491;41.942;24.220;2023-08-01T02:06:56;89600.81;;;15.14;87.54
22649;BME280;11491;41.942;24.220;2023-08-01T02:09:22;89685.38;;;15.76;87.76
22649;BME280;11491;41.942;24.220;2023-08-01T02:11:49;89660.25;;;15.64;87.88
22649;BME280;11491;41.942;24.220;2023-08-01T02:14:17;89680.69;;;15.65;87.95
22649;BME280;11491;41.942;24.220;2023-08-01T02:16:44;89681.91;;;15.79;86.57
22649;BME280;11491;41.942;24.220;2023-08-01T02:19:11;89686.50;;;15.75;86.36
22649;BME280;11491;41.942;24.220;2023-08-01T02:21:37;89675.59;;;15.46;86.62
22649;BME280;11491;41.942;24.220;2023-08-01T02:24:05;89624.56;;;14.98;87.70
22649;BME280;11491;41.942;24.220;2023-08-01T02:26:31;89642.00;;;15.18;88.54
22649;BME280;11491;41.942;24.220;2023-08-01T02:28:58;89565.19;;;14.65;88.65
22649;BME280;11491;41.942;24.220;2023-08-01T02:31:28;89623.06;;;15.04;88.65
22649;BME280;11491;41.942;24.220;2023-08-01T02:33:54;89695.16;;;15.36;88.37
22649;BME280;11491;41.942;24.220;2023-08-01T02:36:21;89686.97;;;15.14;89.36
22649;BME280;11491;41.942;24.220;2023-08-01T02:38:48;89691.31;;;15.37;88.96
22649;BME280;11491;41.942;24.220;2023-08-01T02:41:15;89701.66;;;15.27;88.82
22649;BME280;11491;41.942;24.220;2023-08-01T02:43:41;89691.63;;;15.24;90.28
22649;BME280;11491;41.942;24.220;2023-08-01T02:46:08;89698.59;;;15.25;90.93
22649;BME280;11491;41.942;24.220;2023-08-01T02:48:37;89699.72;;;15.24;91.07
22649;BME280;11491;41.942;24.220;2023-08-01T02:51:05;89620.53;;;14.67;90.60
22649;BME280;11491;41.942;24.220;2023-08-01T02:53:34;89697.09;;;15.39;90.76
22649;BME280;11491;41.942;24.220;2023-08-01T02:56:01;89633.38;;;14.95;89.81
22649;BME280;11491;41.942;24.220;2023-08-01T02:58:28;89700.47;;;15.25;90.88
22649;BME280;11491;41.942;24.220;2023-08-01T03:00:55;89700.78;;;15.09;91.50
22649;BME280;11491;41.942;24.220;2023-08-01T03:03:22;89683.88;;;15.12;90.27
22649;BME280;11491;41.942;24.220;2023-08-01T03:05:51;89691.22;;;15.22;89.54
22649;BME280;11491;41.942;24.220;2023-08-01T03:08:18;89647.59;;;14.92;88.21
22649;BME280;11491;41.942;24.220;2023-08-01T03:10:45;89710.16;;;15.33;89.28
22649;BME280;11491;41.942;24.220;2023-08-01T03:13:12;89624.75;;;14.68;89.38
22649;BME280;11491;41.942;24.220;2023-08-01T03:15:39;89688.19;;;15.24;89.01
22649;BME280;11491;41.942;24.220;2023-08-01T03:18:05;89710.97;;;15.41;88.04
22649;BME280;11491;41.942;24.220;2023-08-01T03:20:35;89728.63;;;15.35;87.76
22649;BME280;11491;41.942;24.220;2023-08-01T03:23:04;89653.69;;;14.81;87.54
22649;BME280;11491;41.942;24.220;2023-08-01T03:25:31;89704.75;;;15.29;87.88
22649;BME280;11491;41.942;24.220;2023-08-01T03:27:58;89577.38;;;14.49;87.92
22649;BME280;11491;41.942;24.220;2023-08-01T03:30:24;89710.84;;;15.16;88.61
22649;BME280;11491;41.942;24.220;2023-08-01T03:32:51;89580.19;;;14.15;89.36
22649;BME280;11491;41.942;24.220;2023-08-01T03:35:18;89641.59;;;14.54;89.72
22649;BME280;11491;41.942;24.220;2023-08-01T03:37:45;89707.69;;;15.10;89.74
22649;BME280;11491;41.942;24.220;2023-08-01T03:40:13;89713.84;;;15.07;89.64
22649;BME280;11491;41.942;24.220;2023-08-01T03:42:40;89716.22;;;15.19;88.19
22649;BME280;11491;41.942;24.220;2023-08-01T03:45:08;89720.81;;;15.15;88.50
22649;BME280;11491;41.942;24.220;2023-08-01T03:47:36;89715.81;;;15.17;88.14
22649;BME280;11491;41.942;24.220;2023-08-01T03:50:05;89712.72;;;15.08;88.17
22649;BME280;11491;41.942;24.220;2023-08-01T03:52:32;89717.34;;;15.15;88.05
22649;BME280;11491;41.942;24.220;2023-08-01T03:54:59;89715.41;;;15.12;88.11
22649;BME280;11491;41.942;24.220;2023-08-01T03:57:27;89721.22;;;15.17;88.81
22649;BME280;11491;41.942;24.220;2023-08-01T03:59:53;89715.47;;;15.22;88.61
22649;BME280;11491;41.942;24.220;2023-08-01T04:02:20;89717.03;;;15.27;88.07
22649;BME280;11491;41.942;24.220;2023-08-01T04:04:47;89720.13;;;15.33;87.20
22649;BME280;11491;41.942;24.220;2023-08-01T04:07:14;89709.69;;;15.20;86.88
22649;BME280;11491;41.942;24.220;2023-08-01T04:09:41;89715.34;;;15.01;88.39
22649;BME280;11491;41.942;24.220;2023-08-01T04:12:08;89709.09;;;14.90;88.90
22649;BME280;11491;41.942;24.220;2023-08-01T04:14:37;89721.50;;;15.05;88.98
22649;BME280;11491;41.942;24.220;2023-08-01T04:17:04;89726.13;;;15.01;89.10
22649;BME280;11491;41.942;24.220;2023-08-01T04:19:31;89721.47;;;14.98;89.72
22649;BME280;11491;41.942;24.220;2023-08-01T04:21:58;89723.69;;;14.85;89.87
22649;BME280;11491;41.942;24.220;2023-08-01T04:24:26;89728.22;;;14.77;90.63
22649;BME280;11491;41.942;24.220;2023-08-01T04:26:56;89731.72;;;14.81;90.47
22649;BME280;11491;41.942;24.220;2023-08-01T04:29:23;89726.81;;;14.91;91.15
22649;BME280;11491;41.942;24.220;2023-08-01T04:31:53;89732.31;;;15.08;90.57
22649;BME280;11491;41.942;24.220;2023-08-01T04:34:19;89727.34;;;15.14;90.39
22649;BME280;11491;41.942;24.220;2023-08-01T04:36:46;89708.41;;;15.00;90.21
22649;BME280;11491;41.942;24.220;2023-08-01T04:39:13;89732.84;;;15.32;88.44
22649;BME280;11491;41.942;24.220;2023-08-01T04:41:41;89710.88;;;15.23;87.72
22649;BME280;11491;41.942;24.220;2023-08-01T04:44:08;89731.00;;;15.47;87.43
22649;BME280;11491;41.942;24.220;2023-08-01T04:46:36;89742.97;;;15.53;87.68
22649;BME280;11491;41.942;24.220;2023-08-01T04:49:05;89732.56;;;15.55;86.59
22649;BME280;11491;41.942;24.220;2023-08-01T04:51:32;89741.81;;;15.54;87.91
22649;BME280;11491;41.942;24.220;2023-08-01T04:53:59;89718.25;;;15.37;88.58
22649;BME280;11491;41.942;24.220;2023-08-01T04:56:28;89715.25;;;15.49;88.48
22649;BME280;11491;41.942;24.220;2023-08-01T04:58:55;89740.88;;;15.91;88.68
22649;BME280;11491;41.942;24.220;2023-08-01T05:01:22;89741.28;;;16.04;87.49
22649;BME280;11491;41.942;24.220;2023-08-01T05:03:49;89745.19;;;16.13;87.12
22649;BME280;11491;41.942;24.220;2023-08-01T05:06:17;89702.75;;;15.96;86.33
22649;BME280;11491;41.942;24.220;2023-08-01T05:09:03;89699.72;;;16.08;85.62
22649;BME280;11491;41.942;24.220;2023-08-01T05:11:32;89680.47;;;16.13;84.17
22649;BME280;11491;41.942;24.220;2023-08-01T05:14:02;89710.59;;;16.58;83.07
22649;BME280;11491;41.942;24.220;2023-08-01T05:16:34;89744.97;;;16.83;82.85
22649;BME280;11491;41.942;24.220;2023-08-01T05:19:10;89719.13;;;16.82;82.30
22649;BME280;11491;41.942;24.220;2023-08-01T05:25:04;89740.69;;;17.36;79.83
22649;BME280;11491;41.942;24.220;2023-08-01T05:27:36;89735.28;;;17.50;79.61
22649;BME280;11491;41.942;24.220;2023-08-01T05:30:37;89725.25;;;17.43;79.17
22649;BME280;11491;41.942;24.220;2023-08-01T05:33:15;89638.13;;;16.89;78.72
22649;BME280;11491;41.942;24.220;2023-08-01T05:36:03;89719.03;;;17.54;78.53
22649;BME280;11491;41.942;24.220;2023-08-01T05:39:05;89622.69;;;16.97;78.01
22649;BME280;11491;41.942;24.220;2023-08-01T05:41:33;89730.56;;;17.94;78.67
22649;BME280;11491;41.942;24.220;2023-08-01T05:44:07;89719.69;;;18.01;76.85
22649;BME280;11491;41.942;24.220;2023-08-01T05:46:50;89678.34;;;18.04;76.35
22649;BME280;11491;41.942;24.220;2023-08-01T05:49:20;89692.47;;;18.37;75.63
22649;BME280;11491;41.942;24.220;2023-08-01T05:51:47;89680.72;;;18.61;73.14
22649;BME280;11491;41.942;24.220;2023-08-01T05:54:14;89693.28;;;18.93;72.02
22649;BME280;11491;41.942;24.220;2023-08-01T05:56:42;89721.19;;;19.35;70.56
22649;BME280;11491;41.942;24.220;2023-08-01T05:59:09;89638.59;;;19.05;70.95
22649;BME280;11491;41.942;24.220;2023-08-01T06:01:36;89696.09;;;19.69;70.79
22649;BME280;11491;41.942;24.220;2023-08-01T06:04:03;89710.59;;;19.89;69.18
22649;BME280;11491;41.942;24.220;2023-08-01T06:06:30;89718.94;;;20.06;68.48
22649;BME280;11491;41.942;24.220;2023-08-01T06:08:56;89718.50;;;20.11;68.04
22649;BME280;11491;41.942;24.220;2023-08-01T06:11:23;89707.97;;;20.16;67.48
22649;BME280;11491;41.942;24.220;2023-08-01T06:13:52;89713.97;;;20.31;68.26
22649;BME280;11491;41.942;24.220;2023-08-01T06:16:19;89708.84;;;20.40;66.42
22649;BME280;11491;41.942;24.220;2023-08-01T06:18:46;89709.81;;;20.54;65.60
22649;BME280;11491;41.942;24.220;2023-08-01T06:21:12;89707.91;;;20.81;64.77
22649;BME280;11491;41.942;24.220;2023-08-01T06:23:39;89701.69;;;21.08;62.78
22649;BME280;11491;41.942;24.220;2023-08-01T06:26:06;89701.09;;;21.20;63.79
22649;BME280;11491;41.942;24.220;2023-08-01T06:28:33;89691.59;;;21.32;64.65
22649;BME280;11491;41.942;24.220;2023-08-01T06:31:01;89693.84;;;21.61;64.00
22649;BME280;11491;41.942;24.220;2023-08-01T06:33:30;89696.25;;;21.79;61.17
22649;BME280;11491;41.942;24.220;2023-08-01T06:35:56;89673.78;;;21.75;62.95
22649;BME280;11491;41.942;24.220;2023-08-01T06:38:23;89691.03;;;22.08;63.89
22649;BME280;11491;41.942;24.220;2023-08-01T06:40:50;89686.66;;;22.34;63.94
22649;BME280;11491;41.942;24.220;2023-08-01T06:43:17;89690.97;;;22.51;61.56
22649;BME280;11491;41.942;24.220;2023-08-01T06:45:43;89654.53;;;22.45;60.66
22649;BME280;11491;41.942;24.220;2023-08-01T06:48:12;89678.44;;;22.90;61.27
22649;BME280;11491;41.942;24.220;2023-08-01T06:50:38;89677.13;;;23.15;60.57
22649;BME280;11491;41.942;24.220;2023-08-01T06:53:05;89677.63;;;23.42;59.49
22649;BME280;11491;41.942;24.220;2023-08-01T06:55:33;89688.00;;;23.64;58.94
22649;BME280;11491;41.942;24.220;2023-08-01T06:58:00;89675.72;;;23.72;58.84
22649;BME280;11491;41.942;24.220;2023-08-01T07:00:27;89682.38;;;23.88;57.58
22649;BME280;11491;41.942;24.220;2023-08-01T07:02:53;89653.28;;;23.35;55.99
22649;BME280;11491;41.942;24.220;2023-08-01T07:05:22;89678.38;;;23.59;56.32
22649;BME280;11491;41.942;24.220;2023-08-01T07:07:48;89685.09;;;23.71;56.88
22649;BME280;11491;41.942;24.220;2023-08-01T07:10:15;89683.91;;;23.89;58.41
22649;BME280;11491;41.942;24.220;2023-08-01T07:12:42;89681.63;;;24.00;57.62
22649;BME280;11491;41.942;24.220;2023-08-01T07:15:09;89677.53;;;24.08;55.40
22649;BME280;11491;41.942;24.220;2023-08-01T07:17:36;89634.63;;;23.79;54.19
22649;BME280;11491;41.942;24.220;2023-08-01T07:20:04;89683.72;;;24.25;55.17
22649;BME280;11491;41.942;24.220;2023-08-01T07:22:32;89681.25;;;24.14;56.66
22649;BME280;11491;41.942;24.220;2023-08-01T07:24:59;89675.75;;;24.31;56.73
22649;BME280;11491;41.942;24.220;2023-08-01T07:27:25;89679.63;;;24.46;56.96
22649;BME280;11491;41.942;24.220;2023-08-01T07:29:52;89680.09;;;24.57;57.51
22649;BME280;11491;41.942;24.220;2023-08-01T07:32:19;89682.31;;;24.62;57.81
22649;BME280;11491;41.942;24.220;2023-08-01T07:34:46;89687.31;;;24.77;57.42
22649;BME280;11491;41.942;24.220;2023-08-01T07:37:12;89682.66;;;24.90;55.59
22649;BME280;11491;41.942;24.220;2023-08-01T07:39:40;89676.75;;;25.04;56.00
22649;BME280;11491;41.942;24.220;2023-08-01T07:42:07;89678.94;;;25.09;54.13
22649;BME280;11491;41.942;24.220;2023-08-01T07:44:34;89675.22;;;25.29;55.33
22649;BME280;11491;41.942;24.220;2023-08-01T07:47:01;89664.53;;;25.22;54.17
22649;BME280;11491;41.942;24.220;2023-08-01T07:49:30;89680.78;;;25.38;52.68
22649;BME280;11491;41.942;24.220;2023-08-01T07:51:56;89677.88;;;25.20;51.56
22649;BME280;11491;41.942;24.220;2023-08-01T07:54:23;89684.84;;;24.95;54.90
22649;BME280;11491;41.942;24.220;2023-08-01T07:56:52;89676.53;;;24.86;52.65
22649;BME280;11491;41.942;24.220;2023-08-01T07:59:18;89669.75;;;24.78;55.79
22649;BME280;11491;41.942;24.220;2023-08-01T08:01:45;89673.78;;;24.86;55.73
22649;BME280;11491;41.942;24.220;2023-08-01T08:04:12;89672.94;;;25.14;56.47
22649;BME280;11491;41.942;24.220;2023-08-01T08:06:39;89664.59;;;25.31;54.40
22649;BME280;11491;41.942;24.220;2023-08-01T08:09:06;89660.47;;;25.39;54.47
22649;BME280;11491;41.942;24.220;2023-08-01T08:11:33;89659.78;;;25.48;54.80
22649;BME280;11491;41.942;24.220;2023-08-01T08:14:01;89662.84;;;25.50;52.03
22649;BME280;11491;41.942;24.220;2023-08-01T08:16:28;89655.88;;;25.71;53.60
22649;BME280;11491;41.942;24.220;2023-08-01T08:18:55;89644.06;;;25.74;52.64
22649;BME280;11491;41.942;24.220;2023-08-01T08:21:22;89652.78;;;25.94;53.30
22649;BME280;11491;41.942;24.220;2023-08-01T08:23:49;89585.72;;;25.42;50.75
22649;BME280;11491;41.942;24.220;2023-08-01T08:26:15;89656.63;;;26.19;52.69
22649;BME280;11491;41.942;24.220;2023-08-01T08:28:42;89654.31;;;26.39;52.07
22649;BME280;11491;41.942;24.220;2023-08-01T08:31:10;89642.22;;;26.50;51.90
22649;BME280;11491;41.942;24.220;2023-08-01T08:33:37;89650.38;;;26.62;50.75
22649;BME280;11491;41.942;24.220;2023-08-01T08:36:04;89651.19;;;26.72;49.59
22649;BME280;11491;41.942;24.220;2023-08-01T08:38:31;89640.28;;;26.81;51.21
22649;BME280;11491;41.942;24.220;2023-08-01T08:41:06;89644.31;;;26.99;50.62
22649;BME280;11491;41.942;24.220;2023-08-01T08:43:34;89644.53;;;27.14;46.83
22649;BME280;11491;41.942;24.220;2023-08-01T08:46:03;89640.34;;;27.00;46.07
22649;BME280;11491;41.942;24.220;2023-08-01T08:48:32;89637.06;;;27.14;48.67
22649;BME280;11491;41.942;24.220;2023-08-01T08:51:00;89641.00;;;27.04;46.54
22649;BME280;11491;41.942;24.220;2023-08-01T08:53:30;89626.91;;;26.93;47.26
22649;BME280;11491;41.942;24.220;2023-08-01T08:55:58;89626.75;;;27.27;50.51
22649;BME280;11491;41.942;24.220;2023-08-01T08:58:26;89629.50;;;27.18;46.53
22649;BME280;11491;41.942;24.220;2023-08-01T09:00:53;89618.25;;;27.25;47.16
22649;BME280;11491;41.942;24.220;2023-08-01T09:03:19;89626.53;;;27.53;48.72
22649;BME280;11491;41.942;24.220;2023-08-01T09:05:50;89622.72;;;27.60;49.83
22649;BME280;11491;41.942;24.220;2023-08-01T09:08:18;89624.41;;;27.48;46.13
22649;BME280;11491;41.942;24.220;2023-08-01T09:10:46;89621.34;;;27.55;47.50
22649;BME280;11491;41.942;24.220;2023-08-01T09:13:13;89619.19;;;27.41;47.48
22649;BME280;11491;41.942;24.220;2023-08-01T09:15:42;89620.69;;;27.33;44.99
22649;BME280;11491;41.942;24.220;2023-08-01T09:18:09;89621.06;;;27.53;48.06
22649;BME280;11491;41.942;24.220;2023-08-01T09:20:40;89613.09;;;27.55;46.65
22649;BME280;11491;41.942;24.220;2023-08-01T09:23:09;89610.84;;;27.72;47.50
22649;BME280;11491;41.942;24.220;2023-08-01T09:25:36;89518.75;;;26.84;42.53
22649;BME280;11491;41.942;24.220;2023-08-01T09:28:04;89522.00;;;27.01;48.44
22649;BME280;11491;41.942;24.220;2023-08-01T09:30:46;89549.69;;;27.53;49.60
22649;BME280;11491;41.942;24.220;2023-08-01T09:33:13;89609.81;;;28.16;46.24
22649;BME280;11491;41.942;24.220;2023-08-01T09:35:39;89610.72;;;27.94;44.23
22649;BME280;11491;41.942;24.220;2023-08-01T09:38:06;89607.09;;;27.88;46.88
22649;BME280;11491;41.942;24.220;2023-08-01T09:40:37;89549.38;;;27.42;46.72
22649;BME280;11491;41.942;24.220;2023-08-01T09:43:04;89603.72;;;28.11;46.14
22649;BME280;11491;41.942;24.220;2023-08-01T09:45:31;89575.31;;;27.78;48.15
22649;BME280;11491;41.942;24.220;2023-08-01T09:47:59;89604.94;;;28.10;44.04
22649;BME280;11491;41.942;24.220;2023-08-01T09:50:27;89612.69;;;28.40;45.73
22649;BME280;11491;41.942;24.220;2023-08-01T09:52:54;89596.47;;;28.69;47.55
22649;BME280;11491;41.942;24.220;2023-08-01T09:55:25;89561.84;;;28.44;44.84
22649;BME280;11491;41.942;24.220;2023-08-01T09:57:57;89570.94;;;28.78;45.55
22649;BME280;11491;41.942;24.220;2023-08-01T10:00:25;89575.84;;;29.16;43.29
22649;BME280;11491;41.942;24.220;2023-08-01T10:02:53;89573.63;;;29.54;41.96
22649;BME280;11491;41.942;24.220;2023-08-01T10:05:21;89506.88;;;29.20;42.87
22649;BME280;11491;41.942;24.220;2023-08-01T10:07:51;89580.16;;;29.90;41.29
22649;BME280;11491;41.942;24.220;2023-08-01T10:10:20;89586.41;;;30.14;41.47
22649;BME280;11491;41.942;24.220;2023-08-01T10:12:47;89579.53;;;30.10;42.43
22649;BME280;11491;41.942;24.220;2023-08-01T10:15:17;89570.22;;;30.07;43.58
22649;BME280;11491;41.942;24.220;2023-08-01T10:17:44;89566.59;;;30.01;40.22
22649;BME280;11491;41.942;24.220;2023-08-01T10:20:12;89543.25;;;30.11;40.74
22649;BME280;11491;41.942;24.220;2023-08-01T10:22:41;89571.44;;;30.30;41.87
22649;BME280;11491;41.942;24.220;2023-08-01T10:25:10;89567.00;;;30.23;40.70
22649;BME280;11491;41.942;24.220;2023-08-01T10:27:37;89526.38;;;29.79;43.29
22649;BME280;11491;41.942;24.220;2023-08-01T10:30:05;89560.91;;;30.29;41.29
22649;BME280;11491;41.942;24.220;2023-08-01T10:32:35;89555.78;;;30.12;43.67
22649;BME280;11491;41.942;24.220;2023-08-01T10:35:02;89488.47;;;29.74;40.93
22649;BME280;11491;41.942;24.220;2023-08-01T10:37:39;89477.28;;;29.78;42.93
22649;BME280;11491;41.942;24.220;2023-08-01T10:40:07;89548.25;;;30.37;40.86
22649;BME280;11491;41.942;24.220;2023-08-01T10:42:38;89540.59;;;30.02;38.48
22649;BME280;11491;41.942;24.220;2023-08-01T10:45:05;89536.56;;;30.03;41.86
22649;BME280;11491;41.942;24.220;2023-08-01T10:47:34;89539.81;;;30.01;41.41
22649;BME280;11491;41.942;24.220;2023-08-01T10:50:00;89534.13;;;30.05;44.55
22649;BME280;11491;41.942;24.220;2023-08-01T10:52:28;89522.56;;;30.45;40.41
22649;BME280;11491;41.942;24.220;2023-08-01T10:54:56;89527.63;;;30.47;41.06
22649;BME280;11491;41.942;24.220;2023-08-01T10:57:23;89520.44;;;31.00;39.20
22649;BME280;11491;41.942;24.220;2023-08-01T10:59:50;89532.41;;;31.11;37.88
22649;BME280;11491;41.942;24.220;2023-08-01T11:02:20;89522.50;;;31.20;41.89
22649;BME280;11491;41.942;24.220;2023-08-01T11:04:56;89524.34;;;31.43;39.43
22649;BME280;11491;41.942;24.220;2023-08-01T11:07:23;89500.28;;;31.08;38.72
22649;BME280;11491;41.942;24.220;2023-08-01T11:10:02;89514.28;;;30.90;38.66
22649;BME280;11491;41.942;24.220;2023-08-01T11:12:34;89495.53;;;30.94;39.55
22649;BME280;11491;41.942;24.220;2023-08-01T11:15:02;89510.09;;;31.30;39.91
22649;BME280;11491;41.942;24.220;2023-08-01T11:17:35;89475.56;;;30.99;38.98
22649;BME280;11491;41.942;24.220;2023-08-01T11:20:08;89508.25;;;31.62;39.05
22649;BME280;11491;41.942;24.220;2023-08-01T11:22:36;89502.13;;;31.73;38.54
22649;BME280;11491;41.942;24.220;2023-08-01T11:25:03;89505.06;;;31.90;38.21
22649;BME280;11491;41.942;24.220;2023-08-01T11:27:30;89504.97;;;31.99;37.04
22649;BME280;11491;41.942;24.220;2023-08-01T11:29:57;89414.50;;;31.32;39.57
22649;BME280;11491;41.942;24.220;2023-08-01T11:32:33;89494.78;;;31.90;38.56
22649;BME280;11491;41.942;24.220;2023-08-01T11:35:00;89479.97;;;32.14;37.16
22649;BME280;11491;41.942;24.220;2023-08-01T11:37:30;89496.78;;;32.36;35.88
22649;BME280;11491;41.942;24.220;2023-08-01T11:39:58;89493.22;;;32.30;35.67
22649;BME280;11491;41.942;24.220;2023-08-01T11:42:30;89467.19;;;32.43;36.97
22649;BME280;11491;41.942;24.220;2023-08-01T11:45:07;89407.50;;;31.99;37.51
22649;BME280;11491;41.942;24.220;2023-08-01T11:47:34;89414.69;;;31.70;38.98
22649;BME280;11491;41.942;24.220;2023-08-01T11:50:01;89518.69;;;32.66;34.52
22649;BME280;11491;41.942;24.220;2023-08-01T11:52:30;89439.09;;;31.71;36.59
22649;BME280;11491;41.942;24.220;2023-08-01T11:54:57;89493.63;;;31.76;36.09
22649;BME280;11491;41.942;24.220;2023-08-01T11:57:24;89486.47;;;31.08;37.23
22649;BME280;11491;41.942;24.220;2023-08-01T11:59:54;89369.38;;;30.09;38.04
22649;BME280;11491;41.942;24.220;2023-08-01T12:02:22;89477.97;;;30.17;37.64
22649;BME280;11491;41.942;24.220;2023-08-01T12:04:50;89465.22;;;29.75;39.48
22649;BME280;11491;41.942;24.220;2023-08-01T12:07:17;89426.47;;;29.40;42.28
22649;BME280;11491;41.942;24.220;2023-08-01T12:09:55;89486.03;;;29.91;42.15
22649;BME280;11491;41.942;24.220;2023-08-01T12:12:22;89485.56;;;29.93;40.55
22649;BME280;11491;41.942;24.220;2023-08-01T12:14:49;89477.59;;;29.95;40.41
22649;BME280;11491;41.942;24.220;2023-08-01T12:17:15;89407.06;;;29.19;40.19
22649;BME280;11491;41.942;24.220;2023-08-01T12:19:42;89480.88;;;29.21;41.06
22649;BME280;11491;41.942;24.220;2023-08-01T12:22:09;89429.91;;;28.53;42.13
22649;BME280;11491;41.942;24.220;2023-08-01T12:24:36;89494.88;;;28.75;41.64
22649;BME280;11491;41.942;24.220;2023-08-01T12:27:06;89480.00;;;28.39;42.94
22649;BME280;11491;41.942;24.220;2023-08-01T12:29:33;89499.56;;;28.41;43.86
22649;BME280;11491;41.942;24.220;2023-08-01T12:32:01;89469.84;;;28.73;46.28
22649;BME280;11491;41.942;24.220;2023-08-01T12:34:28;89484.09;;;29.44;42.68
22649;BME280;11491;41.942;24.220;2023-08-01T12:36:55;89465.31;;;29.96;40.45
22649;BME280;11491;41.942;24.220;2023-08-01T12:39:22;89405.69;;;29.54;41.13
22649;BME280;11491;41.942;24.220;2023-08-01T12:41:51;89398.06;;;29.88;41.20
22649;BME280;11491;41.942;24.220;2023-08-01T12:44:20;89465.97;;;30.80;39.12
22649;BME280;11491;41.942;24.220;2023-08-01T12:46:47;89464.97;;;31.33;38.55
22649;BME280;11491;41.942;24.220;2023-08-01T12:49:14;89436.13;;;31.14;38.97
22649;BME280;11491;41.942;24.220;2023-08-01T12:51:40;89445.84;;;31.09;38.09
22649;BME280;11491;41.942;24.220;2023-08-01T12:54:07;89449.47;;;31.00;39.21
22649;BME280;11491;41.942;24.220;2023-08-01T12:56:34;89463.88;;;30.89;38.75
22649;BME280;11491;41.942;24.220;2023-08-01T12:59:01;89436.75;;;30.73;38.87